Cleveland, MS

11:02 AM CST on December 05, 2016 (GMT -0600)
Cleveland | | Change Station

Elev 128 ft 33.70 °N, 90.75 °W | Updated 4 seconds ago

Drizzle
Drizzle
46.9 °F
Feels Like 47 °F
N
2.5
Wind Variable Wind from NNE
Gusts 4.9 mph

Today
High -- | Low -- °F
--% Chance of Precip.
Yesterday
High -- | Low -- °F
Precip. -- in
Pressure 29.97 in
Visibility 7.0 miles
Clouds Overcast 700 ft
Windchill 47 °F
Dew Point 46 °F
Humidity 97%
Rainfall 0.05 in
Snow Depth Not available.
6:53 AM 4:54 PM
Waxing Crescent, 33% visible
METAR KRNV 051655Z AUTO 03005KT 7SM DZ OVC007 08/08 A2997 RMK AO2 T00760076
Pressure 29.97 in
Visibility 7.0 miles
Clouds Overcast 700 ft
Windchill 47 °F
Dew Point 46 °F
Humidity 97%
Rainfall 0.05 in
Snow Depth Not available.
6:53 AM 4:54 PM
Waxing Crescent, 33% visible
METAR KRNV 051655Z AUTO 03005KT 7SM DZ OVC007 08/08 A2997 RMK AO2 T00760076

10-Day Weather Forecast

Almanac

Astronomy

Dec. 05, 2016 Rise Set
Actual Time
Civil Twilight
Nautical Twilight
Astronomical Twilight
Moon
Length of Visible Light
Length of Day
Tomorrow will be .
, % of the Moon is Illuminated

Today's Extremes

State Highs State Lows

Community

WunderPhotos

Upload Photos

1,955,850 photos uploaded!

WunderBlog® & News

Nearby

Air Quality

  Air Quality AQ Index Pollutant
Not available.

Snow Depth

Station Depth Elevation

Earthquake Activity

City Distance Mag. Time & Date
Minimum magnitude displayed is 2.5.

Coastal Water Temperatures

Place Temperature

Stations

Nearby Weather Stations

Station Location Temp. Windchill Dew Point Humidity Wind Precip. Elev Updated Type
                   

Watches & Warnings

There are currently no watches in effect.